sensor_id;sensor_type;location;lat;lon;timestamp;P1;durP1;ratioP1;P2;durP2;ratioP2
61978;SDS011;47938;48.176;16.414;2022-10-16T00:01:20;42.60;;;31.35;;
61978;SDS011;47938;48.176;16.414;2022-10-16T00:03:50;47.33;;;33.10;;
61978;SDS011;47938;48.176;16.414;2022-10-16T00:06:17;46.75;;;33.45;;
61978;SDS011;47938;48.176;16.414;2022-10-16T00:08:44;45.97;;;32.17;;
61978;SDS011;47938;48.176;16.414;2022-10-16T00:11:11;47.78;;;31.73;;
61978;SDS011;47938;48.176;16.414;2022-10-16T00:13:39;90.00;;;31.52;;
61978;SDS011;47938;48.176;16.414;2022-10-16T00:16:06;50.05;;;32.03;;
61978;SDS011;47938;48.176;16.414;2022-10-16T00:18:32;40.75;;;31.25;;
61978;SDS011;47938;48.176;16.414;2022-10-16T00:21:05;45.53;;;31.08;;
61978;SDS011;47938;48.176;16.414;2022-10-16T00:23:34;39.75;;;31.73;;
61978;SDS011;47938;48.176;16.414;2022-10-16T00:26:01;37.72;;;30.83;;
61978;SDS011;47938;48.176;16.414;2022-10-16T00:28:28;40.58;;;30.58;;
61978;SDS011;47938;48.176;16.414;2022-10-16T00:30:54;42.00;;;31.90;;
61978;SDS011;47938;48.176;16.414;2022-10-16T00:33:20;39.47;;;31.10;;
61978;SDS011;47938;48.176;16.414;2022-10-16T00:35:46;41.22;;;30.75;;
61978;SDS011;47938;48.176;16.414;2022-10-16T00:38:12;42.90;;;32.70;;
61978;SDS011;47938;48.176;16.414;2022-10-16T00:40:38;42.58;;;33.75;;
61978;SDS011;47938;48.176;16.414;2022-10-16T00:45:58;37.20;;;30.40;;
61978;SDS011;47938;48.176;16.414;2022-10-16T00:48:24;37.05;;;30.42;;
61978;SDS011;47938;48.176;16.414;2022-10-16T00:50:50;38.00;;;31.00;;
61978;SDS011;47938;48.176;16.414;2022-10-16T00:53:17;48.58;;;33.85;;
61978;SDS011;47938;48.176;16.414;2022-10-16T00:55:42;46.78;;;34.00;;
61978;SDS011;47938;48.176;16.414;2022-10-16T00:58:08;43.30;;;32.75;;
61978;SDS011;47938;48.176;16.414;2022-10-16T01:00:34;52.35;;;34.97;;
61978;SDS011;47938;48.176;16.414;2022-10-16T01:03:01;49.70;;;35.17;;
61978;SDS011;47938;48.176;16.414;2022-10-16T01:05:30;48.17;;;33.70;;
61978;SDS011;47938;48.176;16.414;2022-10-16T01:10:49;52.33;;;34.35;;
61978;SDS011;47938;48.176;16.414;2022-10-16T01:13:24;49.75;;;33.72;;
61978;SDS011;47938;48.176;16.414;2022-10-16T01:15:55;42.65;;;32.22;;
61978;SDS011;47938;48.176;16.414;2022-10-16T01:21:01;44.25;;;32.53;;
61978;SDS011;47938;48.176;16.414;2022-10-16T01:24:24;41.92;;;30.88;;
61978;SDS011;47938;48.176;16.414;2022-10-16T01:32:02;41.75;;;32.35;;
61978;SDS011;47938;48.176;16.414;2022-10-16T01:34:37;44.20;;;31.08;;
61978;SDS011;47938;48.176;16.414;2022-10-16T01:37:12;41.22;;;31.88;;
61978;SDS011;47938;48.176;16.414;2022-10-16T01:39:42;40.38;;;31.23;;
61978;SDS011;47938;48.176;16.414;2022-10-16T01:42:11;38.58;;;30.52;;
61978;SDS011;47938;48.176;16.414;2022-10-16T01:44:44;39.03;;;30.55;;
61978;SDS011;47938;48.176;16.414;2022-10-16T01:47:13;39.88;;;31.25;;
61978;SDS011;47938;48.176;16.414;2022-10-16T01:49:40;40.10;;;30.77;;
61978;SDS011;47938;48.176;16.414;2022-10-16T01:52:13;40.92;;;30.70;;
61978;SDS011;47938;48.176;16.414;2022-10-16T01:54:42;42.25;;;31.42;;
61978;SDS011;47938;48.176;16.414;2022-10-16T01:57:11;40.80;;;31.17;;
61978;SDS011;47938;48.176;16.414;2022-10-16T01:59:41;37.80;;;30.20;;
61978;SDS011;47938;48.176;16.414;2022-10-16T02:04:38;41.15;;;30.25;;
61978;SDS011;47938;48.176;16.414;2022-10-16T02:07:07;38.38;;;28.92;;
61978;SDS011;47938;48.176;16.414;2022-10-16T02:09:33;37.60;;;30.77;;
61978;SDS011;47938;48.176;16.414;2022-10-16T02:12:01;40.78;;;31.08;;
61978;SDS011;47938;48.176;16.414;2022-10-16T02:14:33;41.50;;;29.58;;
61978;SDS011;47938;48.176;16.414;2022-10-16T02:17:09;43.38;;;33.00;;
61978;SDS011;47938;48.176;16.414;2022-10-16T02:19:36;46.30;;;34.03;;
61978;SDS011;47938;48.176;16.414;2022-10-16T02:22:02;45.88;;;35.00;;
61978;SDS011;47938;48.176;16.414;2022-10-16T02:24:34;47.65;;;34.97;;
61978;SDS011;47938;48.176;16.414;2022-10-16T02:27:17;48.40;;;34.42;;
61978;SDS011;47938;48.176;16.414;2022-10-16T02:30:02;42.15;;;32.83;;
61978;SDS011;47938;48.176;16.414;2022-10-16T02:32:39;45.55;;;33.28;;
61978;SDS011;47938;48.176;16.414;2022-10-16T02:35:08;47.40;;;34.40;;
61978;SDS011;47938;48.176;16.414;2022-10-16T02:37:34;44.75;;;33.75;;
61978;SDS011;47938;48.176;16.414;2022-10-16T02:40:02;46.13;;;34.92;;
61978;SDS011;47938;48.176;16.414;2022-10-16T02:42:29;45.10;;;34.55;;
61978;SDS011;47938;48.176;16.414;2022-10-16T02:45:00;46.75;;;35.42;;
61978;SDS011;47938;48.176;16.414;2022-10-16T02:47:25;45.28;;;35.17;;
61978;SDS011;47938;48.176;16.414;2022-10-16T02:49:51;43.80;;;33.72;;
61978;SDS011;47938;48.176;16.414;2022-10-16T02:52:16;44.28;;;34.03;;
61978;SDS011;47938;48.176;16.414;2022-10-16T02:54:42;46.55;;;32.03;;
61978;SDS011;47938;48.176;16.414;2022-10-16T02:57:08;42.05;;;32.83;;
61978;SDS011;47938;48.176;16.414;2022-10-16T02:59:33;42.15;;;33.67;;
61978;SDS011;47938;48.176;16.414;2022-10-16T03:01:59;42.05;;;32.03;;
61978;SDS011;47938;48.176;16.414;2022-10-16T03:04:24;40.90;;;32.30;;
61978;SDS011;47938;48.176;16.414;2022-10-16T03:06:50;40.40;;;30.75;;
61978;SDS011;47938;48.176;16.414;2022-10-16T03:09:16;40.25;;;31.13;;
61978;SDS011;47938;48.176;16.414;2022-10-16T03:11:41;42.67;;;31.80;;
61978;SDS011;47938;48.176;16.414;2022-10-16T03:14:07;38.33;;;30.42;;
61978;SDS011;47938;48.176;16.414;2022-10-16T03:16:32;39.40;;;32.13;;
61978;SDS011;47938;48.176;16.414;2022-10-16T03:18:58;40.10;;;30.55;;
61978;SDS011;47938;48.176;16.414;2022-10-16T03:21:24;39.55;;;30.95;;
61978;SDS011;47938;48.176;16.414;2022-10-16T03:23:49;41.50;;;31.10;;
61978;SDS011;47938;48.176;16.414;2022-10-16T03:26:15;37.60;;;30.20;;
61978;SDS011;47938;48.176;16.414;2022-10-16T03:28:40;37.05;;;30.38;;
61978;SDS011;47938;48.176;16.414;2022-10-16T03:31:06;39.10;;;28.25;;
61978;SDS011;47938;48.176;16.414;2022-10-16T03:33:32;36.35;;;27.98;;
61978;SDS011;47938;48.176;16.414;2022-10-16T03:35:57;34.50;;;28.40;;
61978;SDS011;47938;48.176;16.414;2022-10-16T03:38:23;32.10;;;27.38;;
61978;SDS011;47938;48.176;16.414;2022-10-16T03:40:49;31.55;;;27.30;;
61978;SDS011;47938;48.176;16.414;2022-10-16T03:43:14;32.25;;;26.15;;
61978;SDS011;47938;48.176;16.414;2022-10-16T03:45:40;32.90;;;27.52;;
61978;SDS011;47938;48.176;16.414;2022-10-16T03:48:06;33.00;;;26.52;;
61978;SDS011;47938;48.176;16.414;2022-10-16T03:50:31;30.02;;;26.45;;
61978;SDS011;47938;48.176;16.414;2022-10-16T03:52:57;33.38;;;27.75;;
61978;SDS011;47938;48.176;16.414;2022-10-16T03:55:22;34.72;;;27.20;;
61978;SDS011;47938;48.176;16.414;2022-10-16T03:57:48;32.33;;;26.13;;
61978;SDS011;47938;48.176;16.414;2022-10-16T04:00:14;36.70;;;26.17;;
61978;SDS011;47938;48.176;16.414;2022-10-16T04:02:39;36.03;;;25.30;;
61978;SDS011;47938;48.176;16.414;2022-10-16T04:05:05;29.00;;;24.92;;
61978;SDS011;47938;48.176;16.414;2022-10-16T04:07:31;29.88;;;25.58;;
61978;SDS011;47938;48.176;16.414;2022-10-16T04:09:57;28.85;;;24.17;;
61978;SDS011;47938;48.176;16.414;2022-10-16T04:12:22;30.15;;;25.00;;
61978;SDS011;47938;48.176;16.414;2022-10-16T04:14:48;27.80;;;23.83;;
61978;SDS011;47938;48.176;16.414;2022-10-16T04:17:14;28.42;;;24.00;;
61978;SDS011;47938;48.176;16.414;2022-10-16T04:19:39;24.92;;;22.15;;
61978;SDS011;47938;48.176;16.414;2022-10-16T04:22:05;26.63;;;23.35;;
61978;SDS011;47938;48.176;16.414;2022-10-16T04:24:30;26.77;;;22.95;;
61978;SDS011;47938;48.176;16.414;2022-10-16T04:26:56;26.75;;;23.25;;
61978;SDS011;47938;48.176;16.414;2022-10-16T04:29:21;26.17;;;23.00;;
61978;SDS011;47938;48.176;16.414;2022-10-16T04:31:47;25.77;;;22.70;;
61978;SDS011;47938;48.176;16.414;2022-10-16T04:34:13;27.83;;;22.35;;
61978;SDS011;47938;48.176;16.414;2022-10-16T04:36:38;24.52;;;21.83;;
61978;SDS011;47938;48.176;16.414;2022-10-16T04:39:04;25.63;;;20.85;;
61978;SDS011;47938;48.176;16.414;2022-10-16T04:41:29;23.85;;;20.30;;
61978;SDS011;47938;48.176;16.414;2022-10-16T04:43:55;23.42;;;20.58;;
61978;SDS011;47938;48.176;16.414;2022-10-16T04:46:20;25.42;;;21.48;;
61978;SDS011;47938;48.176;16.414;2022-10-16T04:48:46;23.80;;;20.52;;
61978;SDS011;47938;48.176;16.414;2022-10-16T04:51:12;23.60;;;21.05;;
61978;SDS011;47938;48.176;16.414;2022-10-16T04:53:37;23.15;;;20.63;;
61978;SDS011;47938;48.176;16.414;2022-10-16T04:56:03;24.05;;;20.33;;
61978;SDS011;47938;48.176;16.414;2022-10-16T04:58:29;25.92;;;20.33;;
61978;SDS011;47938;48.176;16.414;2022-10-16T05:00:55;23.83;;;20.85;;
61978;SDS011;47938;48.176;16.414;2022-10-16T05:03:20;24.80;;;20.17;;
61978;SDS011;47938;48.176;16.414;2022-10-16T05:05:46;25.10;;;20.40;;
61978;SDS011;47938;48.176;16.414;2022-10-16T05:08:12;24.33;;;20.20;;
61978;SDS011;47938;48.176;16.414;2022-10-16T05:10:40;24.38;;;21.73;;
61978;SDS011;47938;48.176;16.414;2022-10-16T05:13:07;24.95;;;20.90;;
61978;SDS011;47938;48.176;16.414;2022-10-16T05:15:32;24.85;;;20.88;;
61978;SDS011;47938;48.176;16.414;2022-10-16T05:17:58;24.42;;;21.42;;
61978;SDS011;47938;48.176;16.414;2022-10-16T05:20:24;24.55;;;21.15;;
61978;SDS011;47938;48.176;16.414;2022-10-16T05:22:49;25.65;;;21.98;;
61978;SDS011;47938;48.176;16.414;2022-10-16T05:25:15;27.15;;;22.67;;
61978;SDS011;47938;48.176;16.414;2022-10-16T05:27:41;31.88;;;25.40;;
61978;SDS011;47938;48.176;16.414;2022-10-16T05:30:06;34.40;;;25.20;;
61978;SDS011;47938;48.176;16.414;2022-10-16T05:32:32;32.85;;;25.10;;
61978;SDS011;47938;48.176;16.414;2022-10-16T05:34:58;38.15;;;27.35;;
61978;SDS011;47938;48.176;16.414;2022-10-16T05:37:24;38.55;;;28.67;;
61978;SDS011;47938;48.176;16.414;2022-10-16T05:39:49;41.00;;;29.00;;
61978;SDS011;47938;48.176;16.414;2022-10-16T05:42:15;46.22;;;28.98;;
61978;SDS011;47938;48.176;16.414;2022-10-16T05:44:40;75.53;;;31.25;;
61978;SDS011;47938;48.176;16.414;2022-10-16T05:47:06;45.15;;;30.83;;
61978;SDS011;47938;48.176;16.414;2022-10-16T05:49:31;48.75;;;31.48;;
61978;SDS011;47938;48.176;16.414;2022-10-16T05:51:57;49.40;;;30.95;;
61978;SDS011;47938;48.176;16.414;2022-10-16T05:54:23;47.58;;;32.20;;
61978;SDS011;47938;48.176;16.414;2022-10-16T05:56:48;54.60;;;32.10;;
61978;SDS011;47938;48.176;16.414;2022-10-16T05:59:14;130.38;;;33.45;;
61978;SDS011;47938;48.176;16.414;2022-10-16T06:01:39;101.70;;;32.67;;
61978;SDS011;47938;48.176;16.414;2022-10-16T06:04:05;58.38;;;34.13;;
61978;SDS011;47938;48.176;16.414;2022-10-16T06:06:31;140.70;;;34.92;;
61978;SDS011;47938;48.176;16.414;2022-10-16T06:08:56;85.40;;;39.88;;
61978;SDS011;47938;48.176;16.414;2022-10-16T06:11:26;84.35;;;36.00;;
61978;SDS011;47938;48.176;16.414;2022-10-16T06:13:53;48.42;;;33.97;;
61978;SDS011;47938;48.176;16.414;2022-10-16T06:16:22;61.60;;;34.65;;
61978;SDS011;47938;48.176;16.414;2022-10-16T06:18:50;80.78;;;35.20;;
61978;SDS011;47938;48.176;16.414;2022-10-16T06:21:17;62.58;;;33.33;;
61978;SDS011;47938;48.176;16.414;2022-10-16T06:23:44;121.70;;;36.55;;
61978;SDS011;47938;48.176;16.414;2022-10-16T06:26:11;64.60;;;35.33;;
61978;SDS011;47938;48.176;16.414;2022-10-16T06:28:39;56.50;;;37.50;;
61978;SDS011;47938;48.176;16.414;2022-10-16T06:31:06;48.85;;;35.58;;
61978;SDS011;47938;48.176;16.414;2022-10-16T06:33:32;78.78;;;35.47;;
61978;SDS011;47938;48.176;16.414;2022-10-16T06:36:05;58.45;;;35.10;;
61978;SDS011;47938;48.176;16.414;2022-10-16T06:38:34;82.93;;;36.83;;
61978;SDS011;47938;48.176;16.414;2022-10-16T06:41:00;82.13;;;35.30;;
61978;SDS011;47938;48.176;16.414;2022-10-16T06:43:27;51.75;;;35.85;;
61978;SDS011;47938;48.176;16.414;2022-10-16T06:45:54;55.97;;;36.20;;
61978;SDS011;47938;48.176;16.414;2022-10-16T06:48:21;65.50;;;36.58;;
61978;SDS011;47938;48.176;16.414;2022-10-16T06:51:09;99.97;;;36.08;;
61978;SDS011;47938;48.176;16.414;2022-10-16T06:53:37;49.38;;;34.92;;
61978;SDS011;47938;48.176;16.414;2022-10-16T06:56:21;69.93;;;36.15;;
61978;SDS011;47938;48.176;16.414;2022-10-16T06:58:50;188.57;;;39.28;;
61978;SDS011;47938;48.176;16.414;2022-10-16T07:01:17;91.80;;;37.67;;
61978;SDS011;47938;48.176;16.414;2022-10-16T07:03:45;60.65;;;39.47;;
61978;SDS011;47938;48.176;16.414;2022-10-16T07:06:12;60.10;;;38.67;;
61978;SDS011;47938;48.176;16.414;2022-10-16T07:08:41;54.42;;;37.22;;
61978;SDS011;47938;48.176;16.414;2022-10-16T07:11:09;59.63;;;39.00;;
61978;SDS011;47938;48.176;16.414;2022-10-16T07:13:37;66.78;;;38.92;;
61978;SDS011;47938;48.176;16.414;2022-10-16T07:16:05;60.45;;;39.42;;
61978;SDS011;47938;48.176;16.414;2022-10-16T07:18:35;61.08;;;39.05;;
61978;SDS011;47938;48.176;16.414;2022-10-16T07:23:59;61.78;;;41.33;;
61978;SDS011;47938;48.176;16.414;2022-10-16T07:26:25;79.07;;;40.83;;
61978;SDS011;47938;48.176;16.414;2022-10-16T07:28:52;61.63;;;40.42;;
61978;SDS011;47938;48.176;16.414;2022-10-16T07:31:18;76.78;;;41.28;;
61978;SDS011;47938;48.176;16.414;2022-10-16T07:33:46;68.97;;;40.47;;
61978;SDS011;47938;48.176;16.414;2022-10-16T07:36:12;57.83;;;39.35;;
61978;SDS011;47938;48.176;16.414;2022-10-16T07:38:38;61.75;;;42.00;;
61978;SDS011;47938;48.176;16.414;2022-10-16T07:41:04;67.63;;;39.47;;
61978;SDS011;47938;48.176;16.414;2022-10-16T07:43:32;63.53;;;39.33;;
61978;SDS011;47938;48.176;16.414;2022-10-16T07:45:58;60.33;;;39.15;;
61978;SDS011;47938;48.176;16.414;2022-10-16T07:48:26;58.45;;;40.08;;
61978;SDS011;47938;48.176;16.414;2022-10-16T07:50:56;59.15;;;38.78;;
61978;SDS011;47938;48.176;16.414;2022-10-16T07:53:29;55.38;;;39.47;;
61978;SDS011;47938;48.176;16.414;2022-10-16T07:55:59;56.25;;;39.42;;
61978;SDS011;47938;48.176;16.414;2022-10-16T07:58:26;58.40;;;39.70;;
61978;SDS011;47938;48.176;16.414;2022-10-16T08:00:53;60.85;;;42.13;;
61978;SDS011;47938;48.176;16.414;2022-10-16T08:03:19;60.38;;;39.63;;
61978;SDS011;47938;48.176;16.414;2022-10-16T08:05:45;58.33;;;39.80;;
61978;SDS011;47938;48.176;16.414;2022-10-16T08:08:12;57.53;;;40.22;;
61978;SDS011;47938;48.176;16.414;2022-10-16T08:10:39;55.78;;;40.50;;
61978;SDS011;47938;48.176;16.414;2022-10-16T08:13:05;62.88;;;39.67;;
61978;SDS011;47938;48.176;16.414;2022-10-16T08:15:30;58.10;;;38.88;;
61978;SDS011;47938;48.176;16.414;2022-10-16T08:17:57;59.42;;;39.70;;
61978;SDS011;47938;48.176;16.414;2022-10-16T08:20:24;59.28;;;39.63;;
61978;SDS011;47938;48.176;16.414;2022-10-16T08:22:50;57.28;;;37.25;;
61978;SDS011;47938;48.176;16.414;2022-10-16T08:25:15;59.75;;;38.95;;
61978;SDS011;47938;48.176;16.414;2022-10-16T08:27:41;54.70;;;37.67;;
61978;SDS011;47938;48.176;16.414;2022-10-16T08:30:07;47.95;;;35.00;;
61978;SDS011;47938;48.176;16.414;2022-10-16T08:32:33;44.03;;;33.60;;
61978;SDS011;47938;48.176;16.414;2022-10-16T08:34:59;49.15;;;33.92;;
61978;SDS011;47938;48.176;16.414;2022-10-16T08:37:24;45.95;;;34.13;;
61978;SDS011;47938;48.176;16.414;2022-10-16T08:39:54;42.83;;;31.40;;
61978;SDS011;47938;48.176;16.414;2022-10-16T08:42:23;40.08;;;30.05;;
61978;SDS011;47938;48.176;16.414;2022-10-16T08:50:23;39.13;;;29.17;;
61978;SDS011;47938;48.176;16.414;2022-10-16T08:52:51;38.28;;;29.35;;
61978;SDS011;47938;48.176;16.414;2022-10-16T08:55:41;40.65;;;29.77;;
61978;SDS011;47938;48.176;16.414;2022-10-16T08:58:26;39.78;;;28.83;;
61978;SDS011;47938;48.176;16.414;2022-10-16T09:00:54;43.90;;;30.35;;
61978;SDS011;47938;48.176;16.414;2022-10-16T09:03:41;38.08;;;29.00;;
61978;SDS011;47938;48.176;16.414;2022-10-16T09:14:28;37.95;;;28.35;;
61978;SDS011;47938;48.176;16.414;2022-10-16T09:17:00;35.33;;;26.90;;
61978;SDS011;47938;48.176;16.414;2022-10-16T09:19:41;36.25;;;26.35;;
61978;SDS011;47938;48.176;16.414;2022-10-16T09:22:14;31.73;;;24.40;;
61978;SDS011;47938;48.176;16.414;2022-10-16T09:24:41;28.30;;;23.80;;
61978;SDS011;47938;48.176;16.414;2022-10-16T09:27:11;33.08;;;26.17;;
61978;SDS011;47938;48.176;16.414;2022-10-16T09:29:39;30.10;;;25.25;;
61978;SDS011;47938;48.176;16.414;2022-10-16T09:32:23;30.52;;;25.33;;
61978;SDS011;47938;48.176;16.414;2022-10-16T09:34:52;31.02;;;25.00;;
61978;SDS011;47938;48.176;16.414;2022-10-16T09:37:21;30.23;;;23.90;;
61978;SDS011;47938;48.176;16.414;2022-10-16T09:39:49;31.20;;;24.00;;
61978;SDS011;47938;48.176;16.414;2022-10-16T09:42:17;29.98;;;25.67;;
61978;SDS011;47938;48.176;16.414;2022-10-16T09:44:48;30.65;;;25.35;;
61978;SDS011;47938;48.176;16.414;2022-10-16T09:47:17;29.75;;;24.50;;
61978;SDS011;47938;48.176;16.414;2022-10-16T09:49:52;29.45;;;24.27;;
61978;SDS011;47938;48.176;16.414;2022-10-16T09:52:38;27.83;;;24.27;;
61978;SDS011;47938;48.176;16.414;2022-10-16T09:55:17;27.10;;;22.52;;
61978;SDS011;47938;48.176;16.414;2022-10-16T09:57:52;30.25;;;23.02;;
61978;SDS011;47938;48.176;16.414;2022-10-16T10:00:19;27.00;;;22.70;;
61978;SDS011;47938;48.176;16.414;2022-10-16T10:02:46;27.98;;;23.23;;
61978;SDS011;47938;48.176;16.414;2022-10-16T10:05:22;25.77;;;22.98;;
61978;SDS011;47938;48.176;16.414;2022-10-16T10:07:57;27.13;;;23.35;;
61978;SDS011;47938;48.176;16.414;2022-10-16T10:10:25;28.02;;;22.58;;
61978;SDS011;47938;48.176;16.414;2022-10-16T10:12:53;26.50;;;23.05;;
61978;SDS011;47938;48.176;16.414;2022-10-16T10:15:20;28.77;;;22.73;;
61978;SDS011;47938;48.176;16.414;2022-10-16T10:17:55;27.85;;;24.02;;
61978;SDS011;47938;48.176;16.414;2022-10-16T10:20:30;28.05;;;24.35;;
61978;SDS011;47938;48.176;16.414;2022-10-16T10:22:57;33.60;;;24.13;;
61978;SDS011;47938;48.176;16.414;2022-10-16T10:25:37;27.52;;;23.35;;
61978;SDS011;47938;48.176;16.414;2022-10-16T10:33:38;29.85;;;23.73;;
61978;SDS011;47938;48.176;16.414;2022-10-16T10:38:39;32.45;;;24.67;;
61978;SDS011;47938;48.176;16.414;2022-10-16T10:47:13;31.33;;;24.77;;
61978;SDS011;47938;48.176;16.414;2022-10-16T11:06:18;32.13;;;24.90;;
61978;SDS011;47938;48.176;16.414;2022-10-16T11:08:50;35.42;;;24.90;;
61978;SDS011;47938;48.176;16.414;2022-10-16T11:11:25;33.28;;;24.35;;
61978;SDS011;47938;48.176;16.414;2022-10-16T11:14:00;29.02;;;25.92;;
61978;SDS011;47938;48.176;16.414;2022-10-16T11:16:51;29.92;;;25.42;;
61978;SDS011;47938;48.176;16.414;2022-10-16T11:22:52;32.10;;;25.13;;
61978;SDS011;47938;48.176;16.414;2022-10-16T11:27:30;30.95;;;25.50;;
61978;SDS011;47938;48.176;16.414;2022-10-16T11:35:42;34.97;;;26.33;;
61978;SDS011;47938;48.176;16.414;2022-10-16T11:41:34;32.88;;;27.48;;
61978;SDS011;47938;48.176;16.414;2022-10-16T11:44:16;32.85;;;26.83;;
61978;SDS011;47938;48.176;16.414;2022-10-16T11:46:46;31.58;;;26.08;;
61978;SDS011;47938;48.176;16.414;2022-10-16T11:49:26;31.40;;;26.73;;
61978;SDS011;47938;48.176;16.414;2022-10-16T11:54:34;31.15;;;25.98;;
61978;SDS011;47938;48.176;16.414;2022-10-16T11:57:10;30.13;;;26.65;;
61978;SDS011;47938;48.176;16.414;2022-10-16T12:02:23;36.40;;;27.92;;
61978;SDS011;47938;48.176;16.414;2022-10-16T12:07:39;34.88;;;28.45;;
61978;SDS011;47938;48.176;16.414;2022-10-16T12:10:18;32.20;;;28.70;;
61978;SDS011;47938;48.176;16.414;2022-10-16T12:15:27;33.13;;;27.13;;
61978;SDS011;47938;48.176;16.414;2022-10-16T12:17:54;30.63;;;27.27;;
61978;SDS011;47938;48.176;16.414;2022-10-16T12:20:25;35.10;;;27.70;;
61978;SDS011;47938;48.176;16.414;2022-10-16T12:23:02;32.55;;;27.25;;
61978;SDS011;47938;48.176;16.414;2022-10-16T12:25:31;37.20;;;27.95;;
61978;SDS011;47938;48.176;16.414;2022-10-16T12:28:04;34.40;;;27.40;;
61978;SDS011;47938;48.176;16.414;2022-10-16T12:33:03;34.40;;;27.63;;
61978;SDS011;47938;48.176;16.414;2022-10-16T12:35:46;33.03;;;27.70;;
61978;SDS011;47938;48.176;16.414;2022-10-16T12:38:15;33.88;;;27.95;;
61978;SDS011;47938;48.176;16.414;2022-10-16T12:40:41;32.42;;;28.05;;
61978;SDS011;47938;48.176;16.414;2022-10-16T12:43:13;37.28;;;27.77;;
61978;SDS011;47938;48.176;16.414;2022-10-16T12:46:51;33.83;;;28.48;;
61978;SDS011;47938;48.176;16.414;2022-10-16T12:48:47;34.97;;;29.10;;
61978;SDS011;47938;48.176;16.414;2022-10-16T12:51:22;35.90;;;30.13;;
61978;SDS011;47938;48.176;16.414;2022-10-16T13:05:53;35.17;;;30.02;;
61978;SDS011;47938;48.176;16.414;2022-10-16T13:16:47;35.80;;;27.58;;
61978;SDS011;47938;48.176;16.414;2022-10-16T13:30:23;33.30;;;27.13;;
61978;SDS011;47938;48.176;16.414;2022-10-16T13:32:55;35.60;;;27.75;;
61978;SDS011;47938;48.176;16.414;2022-10-16T13:35:31;31.77;;;27.05;;
61978;SDS011;47938;48.176;16.414;2022-10-16T13:40:36;33.63;;;27.10;;
61978;SDS011;47938;48.176;16.414;2022-10-16T13:43:12;34.83;;;27.58;;
61978;SDS011;47938;48.176;16.414;2022-10-16T13:45:38;37.30;;;27.88;;
61978;SDS011;47938;48.176;16.414;2022-10-16T13:48:04;31.42;;;27.23;;
61978;SDS011;47938;48.176;16.414;2022-10-16T13:50:31;32.75;;;26.15;;
61978;SDS011;47938;48.176;16.414;2022-10-16T13:53:04;29.90;;;26.05;;
61978;SDS011;47938;48.176;16.414;2022-10-16T13:55:31;34.50;;;26.02;;
61978;SDS011;47938;48.176;16.414;2022-10-16T13:58:12;32.92;;;25.90;;
61978;SDS011;47938;48.176;16.414;2022-10-16T14:00:39;31.45;;;25.42;;
61978;SDS011;47938;48.176;16.414;2022-10-16T14:03:15;30.90;;;25.92;;
61978;SDS011;47938;48.176;16.414;2022-10-16T14:06:00;33.72;;;24.85;;
61978;SDS011;47938;48.176;16.414;2022-10-16T14:08:31;33.05;;;25.08;;
61978;SDS011;47938;48.176;16.414;2022-10-16T14:10:58;29.60;;;24.00;;
61978;SDS011;47938;48.176;16.414;2022-10-16T14:16:00;28.38;;;23.55;;
61978;SDS011;47938;48.176;16.414;2022-10-16T14:18:32;30.17;;;23.13;;
61978;SDS011;47938;48.176;16.414;2022-10-16T14:21:03;28.33;;;23.58;;
61978;SDS011;47938;48.176;16.414;2022-10-16T14:23:37;29.63;;;23.35;;
61978;SDS011;47938;48.176;16.414;2022-10-16T14:28:33;26.30;;;22.95;;
61978;SDS011;47938;48.176;16.414;2022-10-16T14:31:00;30.85;;;21.30;;
61978;SDS011;47938;48.176;16.414;2022-10-16T14:38:40;30.75;;;22.45;;
61978;SDS011;47938;48.176;16.414;2022-10-16T14:41:08;24.95;;;21.58;;
61978;SDS011;47938;48.176;16.414;2022-10-16T14:43:38;29.75;;;21.77;;
61978;SDS011;47938;48.176;16.414;2022-10-16T14:46:13;26.92;;;21.90;;
61978;SDS011;47938;48.176;16.414;2022-10-16T14:48:50;31.17;;;21.40;;
61978;SDS011;47938;48.176;16.414;2022-10-16T14:51:20;25.70;;;20.15;;
61978;SDS011;47938;48.176;16.414;2022-10-16T14:53:46;25.33;;;21.67;;
61978;SDS011;47938;48.176;16.414;2022-10-16T14:56:17;25.35;;;21.75;;
61978;SDS011;47938;48.176;16.414;2022-10-16T14:58:45;24.23;;;21.10;;
61978;SDS011;47938;48.176;16.414;2022-10-16T15:01:11;27.77;;;20.52;;
61978;SDS011;47938;48.176;16.414;2022-10-16T15:03:37;27.20;;;21.10;;
61978;SDS011;47938;48.176;16.414;2022-10-16T15:06:03;23.05;;;20.42;;
61978;SDS011;47938;48.176;16.414;2022-10-16T15:08:34;28.30;;;20.30;;
61978;SDS011;47938;48.176;16.414;2022-10-16T15:11:00;24.95;;;20.23;;
61978;SDS011;47938;48.176;16.414;2022-10-16T15:13:25;25.58;;;20.65;;
61978;SDS011;47938;48.176;16.414;2022-10-16T15:15:51;25.42;;;21.00;;
61978;SDS011;47938;48.176;16.414;2022-10-16T15:18:17;28.50;;;20.92;;
61978;SDS011;47938;48.176;16.414;2022-10-16T15:20:43;27.73;;;21.02;;
61978;SDS011;47938;48.176;16.414;2022-10-16T15:23:18;25.08;;;20.60;;
61978;SDS011;47938;48.176;16.414;2022-10-16T15:25:53;28.33;;;21.00;;
61978;SDS011;47938;48.176;16.414;2022-10-16T15:28:20;28.23;;;21.45;;
61978;SDS011;47938;48.176;16.414;2022-10-16T15:30:54;23.08;;;20.58;;
61978;SDS011;47938;48.176;16.414;2022-10-16T15:33:22;22.42;;;20.00;;
61978;SDS011;47938;48.176;16.414;2022-10-16T15:35:50;24.90;;;20.50;;
61978;SDS011;47938;48.176;16.414;2022-10-16T15:38:17;24.13;;;20.35;;
61978;SDS011;47938;48.176;16.414;2022-10-16T15:40:44;27.52;;;20.63;;
61978;SDS011;47938;48.176;16.414;2022-10-16T15:43:10;26.05;;;21.27;;
61978;SDS011;47938;48.176;16.414;2022-10-16T15:45:36;22.85;;;20.45;;
61978;SDS011;47938;48.176;16.414;2022-10-16T15:48:02;25.73;;;20.85;;
61978;SDS011;47938;48.176;16.414;2022-10-16T15:50:27;24.60;;;19.45;;
61978;SDS011;47938;48.176;16.414;2022-10-16T15:52:54;24.17;;;20.10;;
61978;SDS011;47938;48.176;16.414;2022-10-16T15:55:20;23.38;;;19.20;;
61978;SDS011;47938;48.176;16.414;2022-10-16T15:57:45;26.55;;;19.50;;
61978;SDS011;47938;48.176;16.414;2022-10-16T16:00:12;26.10;;;20.17;;
61978;SDS011;47938;48.176;16.414;2022-10-16T16:02:43;28.77;;;22.35;;
61978;SDS011;47938;48.176;16.414;2022-10-16T16:05:14;27.80;;;21.05;;
61978;SDS011;47938;48.176;16.414;2022-10-16T16:07:40;24.02;;;21.15;;
61978;SDS011;47938;48.176;16.414;2022-10-16T16:10:07;29.08;;;21.48;;
61978;SDS011;47938;48.176;16.414;2022-10-16T16:12:34;26.95;;;22.40;;
61978;SDS011;47938;48.176;16.414;2022-10-16T16:15:00;27.08;;;20.08;;
61978;SDS011;47938;48.176;16.414;2022-10-16T16:17:26;28.65;;;20.27;;
61978;SDS011;47938;48.176;16.414;2022-10-16T16:19:52;31.63;;;20.45;;
61978;SDS011;47938;48.176;16.414;2022-10-16T16:22:17;23.77;;;19.63;;
61978;SDS011;47938;48.176;16.414;2022-10-16T16:24:43;24.38;;;19.73;;
61978;SDS011;47938;48.176;16.414;2022-10-16T16:27:09;24.33;;;19.38;;
61978;SDS011;47938;48.176;16.414;2022-10-16T16:29:35;27.40;;;19.42;;
61978;SDS011;47938;48.176;16.414;2022-10-16T16:32:00;26.95;;;19.65;;
61978;SDS011;47938;48.176;16.414;2022-10-16T16:34:26;27.40;;;20.00;;